Time;durP1;ratioP1;P1;durP2;ratioP2;P2;SDS_P1;SDS_P2;PMS_P1;PMS_P2;Temp;Humidity;BMP_temperature;BMP_pressure;BME280_temperature;BME280_humidity;BME280_pressure;Samples;Min_cycle;Max_cycle;Signal;HPM_P1;HPM_P2
2021/04/07 00:00:25;;;;;;;;;;;;;;;5.54;85.29;97707.02;1756893;81;20214;-70
2021/04/07 00:02:53;;;;;;;;;;;;;;;5.55;85.25;97706.02;1754336;81;20182;-71
2021/04/07 00:05:25;;;;;;;;;;;;;;;5.53;85.32;97706.17;1761380;81;20130;-70
2021/04/07 00:07:54;;;;;;;;;;;;;;;5.53;85.22;97702.74;1761426;81;20179;-69
2021/04/07 00:10:22;;;;;;;;;;;;;;;5.54;85.06;97705.70;1739897;81;20175;-71
2021/04/07 00:12:51;;;;;;;;;;;;;;;5.55;85.00;97704.70;1744379;81;20121;-71
2021/04/07 00:15:23;;;;;;;;;;;;;;;5.59;84.74;97701.61;1718188;81;20273;-70
2021/04/07 00:17:51;;;;;;;;;;;;;;;5.61;84.77;97695.70;1741348;81;20459;-71
2021/04/07 00:20:21;;;;;;;;;;;;;;;5.62;84.83;97696.52;1761082;81;20158;-70
2021/04/07 00:22:49;;;;;;;;;;;;;;;5.61;84.87;97699.63;1760051;81;20138;-71
2021/04/07 00:25:18;;;;;;;;;;;;;;;5.60;84.72;97700.61;1720395;81;20145;-71
2021/04/07 00:27:53;;;;;;;;;;;;;;;5.59;84.67;97703.39;1759152;81;20150;-71
2021/04/07 00:30:17;;;;;;;;;;;;;;;5.55;84.94;97695.03;1750124;81;20285;-71
2021/04/07 00:32:44;;;;;;;;;;;;;;;5.53;84.95;97691.75;1754178;81;20228;-70
2021/04/07 00:35:13;;;;;;;;;;;;;;;5.53;85.12;97698.81;1744362;81;20143;-71
2021/04/07 00:37:42;;;;;;;;;;;;;;;5.51;85.21;97692.91;1763543;81;20143;-70
2021/04/07 00:40:11;;;;;;;;;;;;;;;5.58;85.00;97691.28;1758595;81;20121;-71
2021/04/07 00:42:39;;;;;;;;;;;;;;;5.62;84.85;97688.14;1756421;80;20167;-70
2021/04/07 00:45:08;;;;;;;;;;;;;;;5.66;85.05;97688.64;1745598;81;20465;-71
2021/04/07 00:47:36;;;;;;;;;;;;;;;5.67;85.11;97686.83;1756523;81;20233;-70
2021/04/07 00:50:06;;;;;;;;;;;;;;;5.66;85.20;97694.38;1752972;81;20159;-71
2021/04/07 00:52:33;;;;;;;;;;;;;;;5.64;85.23;97684.86;1738984;81;20438;-70
2021/04/07 00:55:05;;;;;;;;;;;;;;;5.66;85.22;97683.89;1758399;81;20471;-70
2021/04/07 00:57:32;;;;;;;;;;;;;;;5.66;85.28;97693.07;1761568;81;20156;-70
2021/04/07 01:00:00;;;;;;;;;;;;;;;5.64;85.48;97688.80;1727207;82;20426;-71
2021/04/07 01:02:27;;;;;;;;;;;;;;;5.66;85.73;97689.14;1755392;81;20185;-71
2021/04/07 01:04:55;;;;;;;;;;;;;;;5.71;85.59;97688.97;1726281;81;20142;-70
2021/04/07 01:07:22;;;;;;;;;;;;;;;5.77;85.69;97692.73;1754868;81;20137;-70
2021/04/07 01:09:50;;;;;;;;;;;;;;;5.78;85.82;97695.20;1718850;81;20249;-70
2021/04/07 01:12:18;;;;;;;;;;;;;;;5.79;85.93;97691.56;1758338;81;20415;-70
2021/04/07 01:14:46;;;;;;;;;;;;;;;5.80;86.05;97697.66;1748658;81;20245;-70
2021/04/07 01:17:13;;;;;;;;;;;;;;;5.79;85.88;97703.88;1763526;81;20185;-70
2021/04/07 01:19:42;;;;;;;;;;;;;;;5.73;85.31;97693.55;1760134;81;20290;-71
2021/04/07 01:22:13;;;;;;;;;;;;;;;5.66;84.80;97696.50;1756851;81;20146;-70
2021/04/07 01:24:40;;;;;;;;;;;;;;;5.61;84.60;97700.95;1721449;81;20174;-70
2021/04/07 01:27:08;;;;;;;;;;;;;;;5.58;84.50;97701.27;1754407;81;20147;-70
2021/04/07 01:29:35;;;;;;;;;;;;;;;5.55;84.84;97704.20;1722459;81;20151;-70
2021/04/07 01:32:04;;;;;;;;;;;;;;;5.51;84.83;97697.66;1762860;81;20122;-70
2021/04/07 01:34:32;;;;;;;;;;;;;;;5.45;84.98;97704.38;1759988;81;20205;-70
2021/04/07 01:37:03;;;;;;;;;;;;;;;5.37;85.01;97708.31;1762403;81;20158;-70
2021/04/07 01:39:30;;;;;;;;;;;;;;;5.29;85.40;97704.86;1729346;81;20187;-71
2021/04/07 01:41:58;;;;;;;;;;;;;;;5.22;85.73;97706.02;1758067;80;20241;-71
2021/04/07 01:44:25;;;;;;;;;;;;;;;5.15;86.39;97709.77;1726071;81;20503;-70
2021/04/07 01:46:53;;;;;;;;;;;;;;;5.12;86.80;97697.47;1718933;81;20166;-69
2021/04/07 01:49:20;;;;;;;;;;;;;;;5.09;87.17;97701.24;1754808;80;20174;-70
2021/04/07 01:51:48;;;;;;;;;;;;;;;5.09;87.38;97699.94;1733063;80;20186;-69
2021/04/07 01:54:16;;;;;;;;;;;;;;;5.06;87.04;97694.51;1750727;81;20163;-70
2021/04/07 01:56:55;;;;;;;;;;;;;;;4.99;87.49;97687.45;1753888;81;20154;-70
2021/04/07 01:59:24;;;;;;;;;;;;;;;4.89;87.71;97683.67;1748966;81;20243;-70
2021/04/07 02:01:53;;;;;;;;;;;;;;;4.82;88.18;97684.80;1759052;81;20179;-70
2021/04/07 02:04:21;;;;;;;;;;;;;;;4.79;88.78;97674.66;1760117;81;20143;-70
2021/04/07 02:06:51;;;;;;;;;;;;;;;4.76;89.25;97670.23;1726764;81;20242;-71
2021/04/07 02:09:19;;;;;;;;;;;;;;;4.74;89.76;97659.10;1760934;81;20181;-70
2021/04/07 02:11:49;;;;;;;;;;;;;;;4.72;89.71;97658.45;1729083;81;20186;-71
2021/04/07 02:14:19;;;;;;;;;;;;;;;4.69;89.79;97647.78;1759953;81;20138;-70
2021/04/07 02:16:56;;;;;;;;;;;;;;;4.67;89.77;97645.31;1743137;81;20151;-70
2021/04/07 02:19:27;;;;;;;;;;;;;;;4.69;89.95;97640.42;1746495;81;20405;-71
2021/04/07 02:22:07;;;;;;;;;;;;;;;4.66;90.09;97641.58;1754117;80;20320;-70
2021/04/07 02:24:37;;;;;;;;;;;;;;;4.63;90.67;97636.65;1761021;81;20442;-70
2021/04/07 02:27:14;;;;;;;;;;;;;;;4.65;90.87;97632.88;1720842;81;20148;-70
2021/04/07 02:29:42;;;;;;;;;;;;;;;4.65;90.42;97622.91;1753350;80;20464;-71
2021/04/07 02:32:09;;;;;;;;;;;;;;;4.64;89.82;97625.21;1738826;81;20170;-71
2021/04/07 02:34:38;;;;;;;;;;;;;;;4.62;89.33;97624.52;1751337;81;20284;-70
2021/04/07 02:37:06;;;;;;;;;;;;;;;4.59;89.16;97623.05;1729609;81;20276;-70
2021/04/07 02:39:34;;;;;;;;;;;;;;;4.60;89.01;97626.48;1721401;81;20146;-70
2021/04/07 02:42:05;;;;;;;;;;;;;;;4.61;88.45;97633.38;1756767;79;20157;-70
2021/04/07 02:44:32;;;;;;;;;;;;;;;4.59;88.02;97634.84;1732901;80;20121;-70
2021/04/07 02:47:01;;;;;;;;;;;;;;;4.60;87.90;97643.03;1754183;81;20171;-70
2021/04/07 02:49:29;;;;;;;;;;;;;;;4.65;87.96;97653.02;1759332;81;20142;-70
2021/04/07 02:51:57;;;;;;;;;;;;;;;4.65;87.68;97666.10;1740178;81;20485;-70
2021/04/07 02:54:24;;;;;;;;;;;;;;;4.63;87.47;97660.21;1751224;81;20434;-70
2021/04/07 02:56:53;;;;;;;;;;;;;;;4.56;87.32;97669.17;1762637;81;20320;-70
2021/04/07 02:59:21;;;;;;;;;;;;;;;4.52;87.53;97676.21;1760096;81;20205;-70
2021/04/07 03:01:49;;;;;;;;;;;;;;;4.48;87.35;97679.63;1700239;81;20154;-70
2021/04/07 03:04:17;;;;;;;;;;;;;;;4.38;87.79;97682.38;1718720;81;20246;-70
2021/04/07 03:06:46;;;;;;;;;;;;;;;4.36;88.45;97693.50;1759927;81;20138;-70
2021/04/07 03:09:13;;;;;;;;;;;;;;;4.30;88.61;97703.27;1751329;81;20167;-71
2021/04/07 03:11:42;;;;;;;;;;;;;;;4.25;89.26;97708.17;1753655;81;20478;-70
2021/04/07 03:14:10;;;;;;;;;;;;;;;4.19;89.76;97712.23;1760481;81;20134;-70
2021/04/07 03:16:37;;;;;;;;;;;;;;;4.13;90.25;97718.55;1718721;81;20225;-70
2021/04/07 03:19:05;;;;;;;;;;;;;;;4.08;90.57;97721.66;1742485;81;20210;-70
2021/04/07 03:21:33;;;;;;;;;;;;;;;4.04;90.61;97730.29;1739523;81;20250;-70
2021/04/07 03:24:00;;;;;;;;;;;;;;;4.04;90.45;97733.38;1742761;81;20450;-69
2021/04/07 03:26:28;;;;;;;;;;;;;;;3.98;90.67;97729.58;1751080;81;20145;-70
2021/04/07 03:28:55;;;;;;;;;;;;;;;3.95;91.17;97736.94;1752243;80;20159;-70
2021/04/07 03:31:23;;;;;;;;;;;;;;;3.94;91.26;97733.48;1747580;81;20538;-70
2021/04/07 03:33:50;;;;;;;;;;;;;;;3.95;91.39;97737.75;1767200;81;20141;-70
2021/04/07 03:36:17;;;;;;;;;;;;;;;3.95;90.66;97736.44;1762449;81;20422;-70
2021/04/07 03:38:45;;;;;;;;;;;;;;;3.91;90.17;97737.73;1764993;81;20158;-70
2021/04/07 03:41:13;;;;;;;;;;;;;;;3.88;89.87;97740.64;1726952;81;20221;-70
2021/04/07 03:43:41;;;;;;;;;;;;;;;3.86;89.94;97742.59;1727579;81;20263;-71
2021/04/07 03:46:08;;;;;;;;;;;;;;;3.86;89.81;97739.48;1759227;81;20138;-70
2021/04/07 03:48:36;;;;;;;;;;;;;;;3.89;89.75;97750.14;1738950;81;20442;-71
2021/04/07 03:51:04;;;;;;;;;;;;;;;3.95;89.72;97753.44;1741919;81;20265;-70
2021/04/07 03:53:32;;;;;;;;;;;;;;;3.99;89.45;97750.84;1743780;81;20162;-70
2021/04/07 03:56:00;;;;;;;;;;;;;;;4.03;89.26;97759.21;1762034;81;20385;-71
2021/04/07 03:58:29;;;;;;;;;;;;;;;4.03;88.65;97757.41;1760081;81;20181;-70
2021/04/07 04:00:57;;;;;;;;;;;;;;;4.03;89.00;97756.10;1718085;81;20269;-70
2021/04/07 04:03:25;;;;;;;;;;;;;;;4.05;88.80;97754.64;1744561;81;20164;-71
2021/04/07 04:05:53;;;;;;;;;;;;;;;4.06;88.00;97754.50;1754159;81;20141;-70
2021/04/07 04:08:20;;;;;;;;;;;;;;;4.06;87.41;97753.19;1746779;81;20158;-70
2021/04/07 04:10:48;;;;;;;;;;;;;;;4.04;86.88;97756.45;1726932;82;20147;-71
2021/04/07 04:13:15;;;;;;;;;;;;;;;4.03;86.54;97759.21;1751400;80;20418;-71
2021/04/07 04:15:45;;;;;;;;;;;;;;;4.01;86.39;97763.78;1715830;81;20174;-70
2021/04/07 04:18:13;;;;;;;;;;;;;;;4.00;85.88;97758.20;1756306;81;20213;-69
2021/04/07 04:20:41;;;;;;;;;;;;;;;4.01;85.56;97754.13;1728780;81;20531;-71
2021/04/07 04:23:08;;;;;;;;;;;;;;;4.04;85.57;97755.61;1748266;81;20147;-70
2021/04/07 04:25:36;;;;;;;;;;;;;;;4.05;85.83;97759.38;1759765;80;20157;-70
2021/04/07 04:28:03;;;;;;;;;;;;;;;4.02;86.16;97756.25;1719736;81;20174;-71
2021/04/07 04:30:31;;;;;;;;;;;;;;;4.01;86.46;97760.67;1765993;81;20126;-70
2021/04/07 04:32:59;;;;;;;;;;;;;;;4.02;86.66;97753.63;1695518;81;20156;-70
2021/04/07 04:35:27;;;;;;;;;;;;;;;4.02;86.45;97757.09;1752981;81;20137;-71
2021/04/07 04:37:55;;;;;;;;;;;;;;;3.99;85.78;97752.66;1752935;81;20201;-70
2021/04/07 04:40:23;;;;;;;;;;;;;;;3.96;85.86;97762.91;1739592;81;20146;-69
2021/04/07 04:42:50;;;;;;;;;;;;;;;3.94;85.87;97764.86;1751581;80;20154;-70
2021/04/07 04:45:18;;;;;;;;;;;;;;;3.91;85.62;97765.19;1756224;81;20221;-71
2021/04/07 04:47:46;;;;;;;;;;;;;;;3.89;86.11;97769.75;1738908;82;20158;-70
2021/04/07 04:50:13;;;;;;;;;;;;;;;3.87;86.07;97766.44;1756562;81;20225;-69
2021/04/07 04:52:42;;;;;;;;;;;;;;;3.88;86.39;97764.17;1757572;81;20147;-72
2021/04/07 04:55:10;;;;;;;;;;;;;;;3.90;86.36;97767.45;1727499;81;20166;-69
2021/04/07 04:57:37;;;;;;;;;;;;;;;3.88;86.74;97770.71;1756819;81;20397;-70
2021/04/07 05:00:07;;;;;;;;;;;;;;;3.88;87.04;97768.09;1764798;81;20142;-71
2021/04/07 05:02:34;;;;;;;;;;;;;;;3.88;86.92;97769.41;1756937;81;20146;-71
2021/04/07 05:05:04;;;;;;;;;;;;;;;3.88;86.94;97769.41;1760152;81;20483;-71
2021/04/07 05:07:31;;;;;;;;;;;;;;;3.89;86.78;97772.37;1763068;81;20257;-71
2021/04/07 05:10:01;;;;;;;;;;;;;;;3.87;86.43;97773.82;1749866;81;20250;-71
2021/04/07 05:12:29;;;;;;;;;;;;;;;3.86;86.51;97775.28;1764753;81;20229;-71
2021/04/07 05:14:57;;;;;;;;;;;;;;;3.83;86.56;97786.84;1756770;81;20312;-70
2021/04/07 05:17:27;;;;;;;;;;;;;;;3.82;86.27;97795.67;1748727;80;20238;-70
2021/04/07 05:19:55;;;;;;;;;;;;;;;3.82;85.91;97795.67;1761434;81;20233;-72
2021/04/07 05:22:24;;;;;;;;;;;;;;;3.85;85.36;97807.61;1757548;81;20142;-72
2021/04/07 05:24:52;;;;;;;;;;;;;;;3.86;84.75;97811.39;1754553;80;20142;-71
2021/04/07 05:27:20;;;;;;;;;;;;;;;3.88;84.83;97816.48;1744288;81;20261;-72
2021/04/07 05:29:48;;;;;;;;;;;;;;;3.86;84.33;97827.08;1756866;81;20178;-73
2021/04/07 05:32:15;;;;;;;;;;;;;;;3.84;84.08;97829.52;1741747;81;20274;-72
2021/04/07 05:34:44;;;;;;;;;;;;;;;3.82;84.07;97826.23;1748170;81;20233;-71
2021/04/07 05:37:11;;;;;;;;;;;;;;;3.82;83.84;97823.13;1762363;81;20229;-71
2021/04/07 05:39:39;;;;;;;;;;;;;;;3.81;83.78;97829.81;1720576;81;20159;-71
2021/04/07 05:42:07;;;;;;;;;;;;;;;3.76;83.61;97825.52;1747448;81;20206;-70
2021/04/07 05:44:34;;;;;;;;;;;;;;;3.74;83.89;97824.84;1719816;81;20474;-71
2021/04/07 05:47:02;;;;;;;;;;;;;;;3.73;83.96;97832.37;1742624;81;20296;-70
2021/04/07 05:49:31;;;;;;;;;;;;;;;3.72;83.66;97829.41;1728926;81;20298;-71
2021/04/07 05:51:59;;;;;;;;;;;;;;;3.76;83.98;97830.73;1716964;81;20258;-71
2021/04/07 05:54:26;;;;;;;;;;;;;;;3.82;84.20;97828.36;1759459;81;20146;-70
2021/04/07 05:56:55;;;;;;;;;;;;;;;3.84;83.77;97834.75;1754703;81;20402;-71
2021/04/07 05:59:22;;;;;;;;;;;;;;;3.81;83.59;97834.55;1763495;81;20442;-71
2021/04/07 06:01:51;;;;;;;;;;;;;;;3.79;83.69;97848.27;1756075;81;20147;-72
2021/04/07 06:04:19;;;;;;;;;;;;;;;3.72;83.47;97840.67;1753614;81;20257;-72
2021/04/07 06:06:46;;;;;;;;;;;;;;;3.71;83.59;97851.30;1738771;81;20250;-72
2021/04/07 06:09:16;;;;;;;;;;;;;;;3.71;83.69;97846.08;1726909;81;20143;-72
2021/04/07 06:11:44;;;;;;;;;;;;;;;3.69;83.33;97850.95;1754599;81;20167;-73
2021/04/07 06:14:12;;;;;;;;;;;;;;;3.66;83.54;97846.02;1729283;81;20154;-72
2021/04/07 06:16:40;;;;;;;;;;;;;;;3.64;83.86;97846.66;1758544;81;20410;-72
2021/04/07 06:19:08;;;;;;;;;;;;;;;3.60;83.97;97851.03;1752187;81;20198;-73
2021/04/07 06:21:35;;;;;;;;;;;;;;;3.60;84.14;97848.42;1754161;80;20121;-70
2021/04/07 06:24:04;;;;;;;;;;;;;;;3.59;84.27;97852.83;1738769;80;20147;-72
2021/04/07 06:26:32;;;;;;;;;;;;;;;3.61;84.31;97843.05;1753685;81;20229;-73
2021/04/07 06:29:00;;;;;;;;;;;;;;;3.67;84.28;97839.83;1704210;81;20154;-72
2021/04/07 06:31:28;;;;;;;;;;;;;;;3.74;84.46;97841.38;1753902;81;20175;-72
2021/04/07 06:33:55;;;;;;;;;;;;;;;3.80;84.67;97843.87;1741304;81;20179;-72
2021/04/07 06:36:23;;;;;;;;;;;;;;;3.83;84.60;97843.06;1747382;80;20159;-73
2021/04/07 06:38:51;;;;;;;;;;;;;;;3.89;84.04;97842.98;1752152;80;20155;-72
2021/04/07 06:41:20;;;;;;;;;;;;;;;3.92;83.93;97836.61;1738812;81;20273;-71
2021/04/07 06:43:48;;;;;;;;;;;;;;;3.93;84.21;97836.47;1761657;81;20146;-72
2021/04/07 06:46:20;;;;;;;;;;;;;;;3.95;83.92;97835.83;1756278;81;20402;-71
2021/04/07 06:48:49;;;;;;;;;;;;;;;3.97;83.71;97844.34;1724039;81;20171;-71
2021/04/07 06:51:18;;;;;;;;;;;;;;;3.98;84.09;97848.58;1749055;81;20183;-71
2021/04/07 06:53:51;;;;;;;;;;;;;;;4.02;83.33;97843.87;1743300;81;20158;-71
2021/04/07 06:56:19;;;;;;;;;;;;;;;4.04;82.73;97848.00;1764507;81;20134;-71
2021/04/07 06:58:47;;;;;;;;;;;;;;;4.18;83.15;97857.59;1763857;81;20129;-72
2021/04/07 07:01:14;;;;;;;;;;;;;;;4.32;83.31;97853.13;1756065;81;20270;-73
2021/04/07 07:03:43;;;;;;;;;;;;;;;4.43;83.43;97847.64;1748980;81;20122;-72
2021/04/07 07:06:11;;;;;;;;;;;;;;;4.53;82.41;97853.26;1755305;81;20422;-71
2021/04/07 07:08:42;;;;;;;;;;;;;;;4.64;82.71;97863.47;1726069;81;20226;-73
2021/04/07 07:11:16;;;;;;;;;;;;;;;4.77;81.71;97858.63;1721894;81;20210;-73
2021/04/07 07:13:46;;;;;;;;;;;;;;;4.91;80.82;97853.28;1760286;80;20142;-72
2021/04/07 07:16:28;;;;;;;;;;;;;;;4.98;79.39;97861.35;1716307;81;20175;-71
2021/04/07 07:18:58;;;;;;;;;;;;;;;5.01;79.49;97867.56;1748940;80;20149;-72
2021/04/07 07:21:26;;;;;;;;;;;;;;;4.98;78.65;97866.59;1761708;81;20250;-72
2021/04/07 07:23:56;;;;;;;;;;;;;;;4.92;77.91;97870.66;1715936;81;20203;-72
2021/04/07 07:26:25;;;;;;;;;;;;;;;4.86;77.55;97870.80;1756678;81;20230;-72
2021/04/07 07:28:56;;;;;;;;;;;;;;;4.87;77.62;97876.84;1762354;81;20156;-73
2021/04/07 07:31:29;;;;;;;;;;;;;;;4.91;77.49;97882.59;1762269;81;20229;-72
2021/04/07 07:34:02;;;;;;;;;;;;;;;4.95;77.43;97885.23;1745293;81;20372;-74
2021/04/07 07:36:34;;;;;;;;;;;;;;;4.96;77.19;97877.72;1750537;80;20299;-72
2021/04/07 07:39:05;;;;;;;;;;;;;;;4.97;76.87;97878.84;1758298;81;20146;-71
2021/04/07 07:41:43;;;;;;;;;;;;;;;4.97;76.81;97876.72;1762334;80;20245;-71
2021/04/07 07:44:12;;;;;;;;;;;;;;;4.90;76.92;97877.86;1724274;81;20155;-73
2021/04/07 07:46:40;;;;;;;;;;;;;;;4.89;76.63;97868.84;1697134;81;20192;-72
2021/04/07 07:49:15;;;;;;;;;;;;;;;4.89;77.11;97868.84;1743702;81;20250;-71
2021/04/07 07:51:46;;;;;;;;;;;;;;;4.89;76.83;97871.45;1750290;81;20150;-72
2021/04/07 07:54:15;;;;;;;;;;;;;;;5.02;76.62;97856.94;1725397;81;20231;-72
2021/04/07 07:56:42;;;;;;;;;;;;;;;5.23;76.40;97849.97;1755397;81;20258;-72
2021/04/07 07:59:10;;;;;;;;;;;;;;;5.50;75.35;97845.95;1762938;81;20225;-74
2021/04/07 08:01:44;;;;;;;;;;;;;;;5.68;73.68;97847.14;1757951;80;20147;-71
2021/04/07 08:04:12;;;;;;;;;;;;;;;5.75;73.33;97842.89;1755966;80;20137;-73
2021/04/07 08:06:41;;;;;;;;;;;;;;;5.81;73.30;97836.99;1756015;80;20146;-70
2021/04/07 08:09:10;;;;;;;;;;;;;;;5.80;73.16;97845.86;1746037;81;20147;-74
2021/04/07 08:11:43;;;;;;;;;;;;;;;5.78;72.55;97838.62;1753487;81;20151;-72
2021/04/07 08:14:15;;;;;;;;;;;;;;;5.71;71.62;97850.27;1755218;81;20148;-71
2021/04/07 08:16:43;;;;;;;;;;;;;;;5.69;71.54;97852.73;1757457;82;20133;-70
2021/04/07 08:19:12;;;;;;;;;;;;;;;5.68;71.19;97855.83;1750620;81;20155;-73
2021/04/07 08:21:41;;;;;;;;;;;;;;;5.63;71.27;97848.45;1754626;81;20123;-71
2021/04/07 08:24:10;;;;;;;;;;;;;;;5.54;71.71;97851.23;1759991;81;20126;-71
2021/04/07 08:26:39;;;;;;;;;;;;;;;5.40;71.28;97865.26;1766345;80;20169;-71
2021/04/07 08:29:07;;;;;;;;;;;;;;;5.18;71.26;97861.91;1762734;81;20236;-70
2021/04/07 08:31:35;;;;;;;;;;;;;;;5.03;71.85;97857.28;1769552;81;20177;-68
2021/04/07 08:34:04;;;;;;;;;;;;;;;4.93;72.61;97856.56;1699082;81;20175;-66
2021/04/07 08:36:31;;;;;;;;;;;;;;;4.91;73.48;97861.14;1738751;80;20162;-67
2021/04/07 08:39:10;;;;;;;;;;;;;;;4.92;74.45;97866.73;1756973;80;20157;-70
2021/04/07 08:41:39;;;;;;;;;;;;;;;4.94;74.39;97858.69;1758504;80;20448;-70
2021/04/07 08:44:06;;;;;;;;;;;;;;;4.91;74.31;97849.36;1746821;80;20163;-69
2021/04/07 08:46:46;;;;;;;;;;;;;;;4.88;74.46;97859.33;1764860;80;20145;-68
2021/04/07 08:49:36;;;;;;;;;;;;;;;4.85;74.66;97856.54;1764966;81;20217;-69
2021/04/07 08:52:19;;;;;;;;;;;;;;;4.81;74.56;97870.44;1759671;81;20147;-69
2021/04/07 08:54:52;;;;;;;;;;;;;;;4.73;74.14;97872.17;1730966;81;20189;-69
2021/04/07 08:57:25;;;;;;;;;;;;;;;4.64;73.46;97876.56;1759308;81;20267;-69
2021/04/07 08:59:53;;;;;;;;;;;;;;;4.56;73.67;97876.48;1755800;81;20514;-72
2021/04/07 09:02:21;;;;;;;;;;;;;;;4.47;73.65;97885.61;1760594;81;20158;-69
2021/04/07 09:05:02;;;;;;;;;;;;;;;4.37;73.72;97878.33;1755155;80;20409;-70
2021/04/07 09:07:41;;;;;;;;;;;;;;;4.35;74.90;97881.58;1753803;81;20224;-70
2021/04/07 09:10:20;;;;;;;;;;;;;;;4.35;75.05;97868.50;1756230;81;20472;-70
2021/04/07 09:12:50;;;;;;;;;;;;;;;4.39;75.72;97865.91;1729533;81;20121;-71
2021/04/07 09:15:23;;;;;;;;;;;;;;;4.41;76.24;97861.34;1762382;81;20146;-73
2021/04/07 09:17:56;;;;;;;;;;;;;;;4.43;76.39;97858.11;1758014;80;20150;-74
2021/04/07 09:20:45;;;;;;;;;;;;;;;4.54;76.16;97865.36;1757761;81;20134;-70
2021/04/07 09:23:31;;;;;;;;;;;;;;;4.64;76.21;97877.88;1744684;80;20413;-73
2021/04/07 09:26:08;;;;;;;;;;;;;;;4.76;76.53;97882.35;1684557;84;20136;-72
2021/04/07 09:28:45;;;;;;;;;;;;;;;4.79;75.68;97893.84;1735674;81;20173;-76
2021/04/07 09:31:21;;;;;;;;;;;;;;;4.81;75.03;97890.57;1755655;81;20142;-72
2021/04/07 09:33:51;;;;;;;;;;;;;;;4.82;74.73;97892.20;1724413;81;20130;-73
2021/04/07 09:36:34;;;;;;;;;;;;;;;4.83;74.97;97897.28;1752723;81;20480;-73
2021/04/07 09:39:08;;;;;;;;;;;;;;;4.83;74.94;97888.62;1761478;81;20236;-72
2021/04/07 09:41:39;;;;;;;;;;;;;;;4.82;74.72;97889.08;1751850;81;20224;-72
2021/04/07 09:44:08;;;;;;;;;;;;;;;4.75;74.35;97889.39;1760997;80;20125;-72
2021/04/07 09:46:36;;;;;;;;;;;;;;;4.67;74.51;97891.94;1758670;80;20138;-72
2021/04/07 09:49:11;;;;;;;;;;;;;;;4.58;74.37;97892.40;1737007;81;20130;-72
2021/04/07 09:51:41;;;;;;;;;;;;;;;4.48;74.82;97892.47;1771543;80;20132;-71
2021/04/07 09:54:24;;;;;;;;;;;;;;;4.40;75.69;97882.45;1777090;80;20244;-72
2021/04/07 09:56:56;;;;;;;;;;;;;;;4.38;76.46;97885.71;1772514;80;20462;-72
2021/04/07 09:59:44;;;;;;;;;;;;;;;4.37;76.55;97882.25;1764509;80;20285;-70
2021/04/07 10:02:24;;;;;;;;;;;;;;;4.44;76.98;97878.55;1772251;80;20237;-72
2021/04/07 10:04:54;;;;;;;;;;;;;;;4.54;77.76;97888.42;1772066;80;20418;-73
2021/04/07 10:07:25;;;;;;;;;;;;;;;4.62;78.61;97881.95;1768947;80;20240;-74
2021/04/07 10:10:00;;;;;;;;;;;;;;;4.60;77.49;97890.91;1758202;81;20496;-72
2021/04/07 10:12:29;;;;;;;;;;;;;;;4.61;76.93;97888.64;1759620;81;20188;-72
2021/04/07 10:14:58;;;;;;;;;;;;;;;4.62;76.93;97891.58;1770764;81;20144;-72
2021/04/07 10:17:28;;;;;;;;;;;;;;;4.62;77.38;97895.04;1768537;80;20207;-71
2021/04/07 10:19:58;;;;;;;;;;;;;;;4.61;77.10;97895.19;1785124;80;20230;-73
2021/04/07 10:22:28;;;;;;;;;;;;;;;4.56;77.36;97895.63;1763600;80;20143;-75
2021/04/07 10:24:57;;;;;;;;;;;;;;;4.54;77.93;97902.00;1785666;80;20422;-73
2021/04/07 10:27:25;;;;;;;;;;;;;;;4.53;77.77;97903.00;1786066;80;20258;-73
2021/04/07 10:30:11;;;;;;;;;;;;;;;4.56;78.25;97905.29;1783737;80;20155;-73
2021/04/07 10:32:41;;;;;;;;;;;;;;;4.60;78.07;97907.93;1736497;83;20242;-75
2021/04/07 10:35:10;;;;;;;;;;;;;;;4.63;76.97;97907.14;1726660;82;20209;-72
2021/04/07 10:37:39;;;;;;;;;;;;;;;4.62;76.16;97908.59;1745671;81;20179;-72
2021/04/07 10:40:12;;;;;;;;;;;;;;;4.58;76.46;97913.34;1743875;80;20129;-73
2021/04/07 10:42:40;;;;;;;;;;;;;;;4.56;76.74;97908.72;1746618;81;20141;-73
2021/04/07 10:45:10;;;;;;;;;;;;;;;4.59;77.02;97901.06;1744165;81;20251;-73
2021/04/07 10:47:40;;;;;;;;;;;;;;;4.64;77.82;97898.32;1711763;82;20150;-73
2021/04/07 10:50:09;;;;;;;;;;;;;;;4.70;77.96;97886.91;1720621;82;20167;-73
2021/04/07 10:52:43;;;;;;;;;;;;;;;4.77;77.87;97890.05;1682111;83;20170;-72
2021/04/07 10:55:22;;;;;;;;;;;;;;;4.85;78.32;97884.86;1719296;82;20234;-72
2021/04/07 10:57:57;;;;;;;;;;;;;;;4.88;78.55;97885.52;1750463;81;20425;-71
2021/04/07 11:00:31;;;;;;;;;;;;;;;4.90;78.07;97892.73;1744841;81;20449;-73
2021/04/07 11:02:58;;;;;;;;;;;;;;;4.90;77.43;97896.66;1753112;80;20405;-73
2021/04/07 11:05:40;;;;;;;;;;;;;;;4.90;77.32;97883.56;1748422;80;20424;-76
2021/04/07 11:08:10;;;;;;;;;;;;;;;4.90;76.50;97891.42;1749841;81;20217;-71
2021/04/07 11:10:47;;;;;;;;;;;;;;;4.84;75.87;97884.53;1758838;80;20405;-72
2021/04/07 11:13:17;;;;;;;;;;;;;;;4.76;75.77;97892.33;1733105;81;20133;-71
2021/04/07 11:15:46;;;;;;;;;;;;;;;4.64;76.36;97893.58;1752975;81;20196;-71
2021/04/07 11:18:15;;;;;;;;;;;;;;;4.62;77.04;97891.11;1761781;80;20254;-70
2021/04/07 11:20:44;;;;;;;;;;;;;;;4.61;77.15;97889.95;1780499;80;20391;-72
2021/04/07 11:23:13;;;;;;;;;;;;;;;4.52;77.38;97890.87;1787580;80;20400;-71
2021/04/07 11:25:44;;;;;;;;;;;;;;;4.43;77.15;97882.97;1782838;80;20128;-71
2021/04/07 11:28:18;;;;;;;;;;;;;;;4.32;77.93;97887.14;1775583;80;20231;-73
2021/04/07 11:31:03;;;;;;;;;;;;;;;4.32;78.80;97892.38;1770528;80;20135;-72
2021/04/07 11:33:50;;;;;;;;;;;;;;;4.44;79.58;97895.06;1765779;80;20143;-72
2021/04/07 11:36:10;;;;;;;;;;;;;;;4.61;78.70;97899.11;1763132;80;20193;-72
2021/04/07 11:38:33;;;;;;;;;;;;;;;4.72;78.79;97899.35;1768301;81;20141;-74
2021/04/07 11:46:27;;;;;;;;;;;;;;;4.93;77.84;97901.09;1709030;81;20200;-74
2021/04/07 11:48:54;;;;;;;;;;;;;;;4.86;77.62;97900.07;1706727;83;20136;-74
2021/04/07 11:51:22;;;;;;;;;;;;;;;4.77;77.84;97899.69;1760161;80;20169;-69
2021/04/07 11:53:50;;;;;;;;;;;;;;;4.72;77.69;97900.66;1754016;80;20133;-72
2021/04/07 11:56:18;;;;;;;;;;;;;;;4.69;77.66;97898.34;1723779;81;20183;-73
2021/04/07 11:58:47;;;;;;;;;;;;;;;4.54;77.01;97901.52;1746994;80;20244;-72
2021/04/07 12:01:16;;;;;;;;;;;;;;;4.51;77.38;97899.69;1718032;81;20535;-73
2021/04/07 12:03:44;;;;;;;;;;;;;;;4.54;78.23;97910.67;1724938;81;20210;-72
2021/04/07 12:06:12;;;;;;;;;;;;;;;4.58;79.23;97915.12;1751428;81;20204;-72
2021/04/07 12:08:39;;;;;;;;;;;;;;;4.59;78.82;97918.90;1755318;81;20503;-72
2021/04/07 12:11:08;;;;;;;;;;;;;;;4.58;78.27;97917.73;1756161;81;20187;-71
2021/04/07 12:13:35;;;;;;;;;;;;;;;4.43;76.74;97923.55;1760695;81;20311;-73
2021/04/07 12:16:05;;;;;;;;;;;;;;;4.36;77.41;97921.19;1733578;81;20233;-73
2021/04/07 12:18:33;;;;;;;;;;;;;;;4.36;77.70;97921.66;1750945;81;20177;-73
2021/04/07 12:21:01;;;;;;;;;;;;;;;4.37;77.76;97928.05;1743279;81;20205;-74
2021/04/07 12:23:28;;;;;;;;;;;;;;;4.37;78.19;97931.98;1729567;81;20192;-72
2021/04/07 12:25:57;;;;;;;;;;;;;;;4.36;77.45;97926.42;1749360;81;20130;-74
2021/04/07 12:28:25;;;;;;;;;;;;;;;4.39;77.51;97933.14;1728534;81;20150;-73
2021/04/07 12:30:53;;;;;;;;;;;;;;;4.43;77.23;97937.09;1742484;81;20228;-71
2021/04/07 12:33:23;;;;;;;;;;;;;;;4.47;77.35;97935.34;1736761;82;20150;-72
2021/04/07 12:35:51;;;;;;;;;;;;;;;4.47;77.04;97945.81;1748323;81;20177;-73
2021/04/07 12:38:18;;;;;;;;;;;;;;;4.47;76.87;97955.47;1712319;82;20201;-74
2021/04/07 12:40:49;;;;;;;;;;;;;;;4.40;77.10;97953.94;1736282;82;20173;-71
2021/04/07 12:43:16;;;;;;;;;;;;;;;4.24;76.35;97943.31;1733694;81;20149;-72
2021/04/07 12:45:45;;;;;;;;;;;;;;;4.15;76.42;97942.91;1708151;82;20152;-72
2021/04/07 12:48:13;;;;;;;;;;;;;;;4.05;76.18;97947.72;1728879;81;20142;-73
2021/04/07 12:50:45;;;;;;;;;;;;;;;3.99;76.42;97960.09;1743426;81;20185;-74
2021/04/07 12:53:16;;;;;;;;;;;;;;;3.96;76.53;97963.00;1707829;82;20150;-72
2021/04/07 12:55:43;;;;;;;;;;;;;;;3.90;77.11;97970.14;1733708;81;20162;-74
2021/04/07 12:58:11;;;;;;;;;;;;;;;3.88;77.49;97969.47;1736046;81;20229;-72
2021/04/07 13:00:39;;;;;;;;;;;;;;;3.91;77.93;97969.64;1741504;81;20192;-73
2021/04/07 13:03:08;;;;;;;;;;;;;;;3.86;78.27;97983.17;1708695;82;20446;-71
2021/04/07 13:05:36;;;;;;;;;;;;;;;3.87;78.94;97993.50;1728839;81;20126;-72
2021/04/07 13:08:04;;;;;;;;;;;;;;;3.78;78.28;98002.67;1736542;81;20531;-73
2021/04/07 13:10:37;;;;;;;;;;;;;;;3.64;78.49;98007.92;1728612;81;20149;-72
2021/04/07 13:13:01;;;;;;;;;;;;;;;3.54;78.95;98016.30;1745666;81;20130;-72
2021/04/07 13:15:28;;;;;;;;;;;;;;;3.45;79.41;98012.75;1730952;81;20146;-72